Time;durP1;ratioP1;P1;durP2;ratioP2;P2;SDS_P1;SDS_P2;PMS_P1;PMS_P2;Temp;Humidity;BMP_temperature;BMP_pressure;BME280_temperature;BME280_humidity;BME280_pressure;Samples;Min_cycle;Max_cycle;Signal;HPM_P1;HPM_P2
2023/07/17 00:00:30;;;;;;;5.18;1.17;;;;;;;-142.75;100.00;76383.28;5007657;28;20030;-61
2023/07/17 00:02:55;;;;;;;6.55;1.40;;;;;;;-142.75;100.00;76385.25;5007812;28;20029;-60
2023/07/17 00:05:22;;;;;;;3.00;0.95;;;;;;;-142.75;100.00;76391.16;5007669;28;20080;-60
2023/07/17 00:07:47;;;;;;;8.55;1.30;;;;;;;-142.75;100.00;76375.41;5007947;28;20022;-62
2023/07/17 00:10:13;;;;;;;5.25;0.90;;;;;;;-142.75;100.00;76389.19;5006245;28;20544;-60
2023/07/17 00:12:38;;;;;;;8.48;1.10;;;;;;;-142.75;100.00;76365.56;5007590;28;20640;-60
2023/07/17 00:15:05;;;;;;;8.13;1.20;;;;;;;-142.75;100.00;76377.38;5007458;28;20520;-60
2023/07/17 00:17:31;;;;;;;8.73;1.23;;;;;;;-142.75;100.00;76395.09;5007589;28;20018;-60
2023/07/17 00:19:57;;;;;;;4.28;0.90;;;;;;;-142.75;100.00;76385.25;5006915;28;20032;-61
2023/07/17 00:22:24;;;;;;;6.57;1.42;;;;;;;-142.75;100.00;76381.31;5006085;28;20030;-61
2023/07/17 00:24:51;;;;;;;4.47;1.27;;;;;;;-142.75;100.00;76383.28;5007484;28;20026;-60
2023/07/17 00:27:16;;;;;;;6.18;1.10;;;;;;;-142.75;100.00;76402.97;5007638;28;20029;-61
2023/07/17 00:29:44;;;;;;;3.40;1.08;;;;;;;-142.75;100.00;76397.06;5006982;28;20021;-61
2023/07/17 00:32:11;;;;;;;4.70;0.93;;;;;;;-142.75;100.00;76399.03;5007367;28;20021;-61
2023/07/17 00:34:36;;;;;;;7.70;1.38;;;;;;;-142.75;100.00;76402.97;5007214;28;20429;-59
2023/07/17 00:37:01;;;;;;;7.15;1.45;;;;;;;-142.75;100.00;76410.84;5007511;28;20026;-61
2023/07/17 00:39:26;;;;;;;5.10;1.02;;;;;;;-142.75;100.00;76401.00;5006770;28;20029;-62
2023/07/17 00:41:52;;;;;;;4.80;1.83;;;;;;;-142.75;100.00;76404.94;5005823;28;20026;-61
2023/07/17 00:44:17;;;;;;;9.48;1.50;;;;;;;-142.75;100.00;76436.44;5007141;28;20034;-61
2023/07/17 00:46:43;;;;;;;5.78;1.25;;;;;;;-142.75;100.00;76428.56;5006974;28;20029;-61
2023/07/17 00:49:10;;;;;;;9.10;1.42;;;;;;;-142.75;100.00;76418.72;5006502;28;20036;-59
2023/07/17 00:51:38;;;;;;;8.80;1.77;;;;;;;-142.75;100.00;76420.69;5006670;28;20022;-60
2023/07/17 00:54:03;;;;;;;8.13;1.10;;;;;;;-142.75;100.00;76428.56;5006919;28;20134;-60
2023/07/17 00:56:29;;;;;;;4.28;0.98;;;;;;;-142.75;100.00;76424.63;5006886;28;20481;-61
2023/07/17 00:58:55;;;;;;;8.50;1.77;;;;;;;-142.75;100.00;76438.41;5006420;28;20104;-61
2023/07/17 01:01:21;;;;;;;10.90;1.30;;;;;;;-142.75;100.00;76424.63;5006616;28;20057;-61
2023/07/17 01:03:47;;;;;;;5.40;1.38;;;;;;;-142.75;100.00;76420.69;5006518;28;20481;-61
2023/07/17 01:06:12;;;;;;;5.70;1.33;;;;;;;-142.75;100.00;76452.19;5007238;28;20076;-60
2023/07/17 01:08:38;;;;;;;7.75;1.65;;;;;;;-142.75;100.00;76456.13;5006438;28;20026;-61
2023/07/17 01:11:04;;;;;;;8.13;1.75;;;;;;;-142.75;100.00;76467.94;5006351;28;20168;-61
2023/07/17 01:13:29;;;;;;;9.10;1.13;;;;;;;-142.75;100.00;76477.78;5006586;28;20025;-61
2023/07/17 01:15:55;;;;;;;6.85;1.10;;;;;;;-142.75;100.00;76475.81;5006210;28;20057;-61
2023/07/17 01:18:20;;;;;;;10.00;1.98;;;;;;;-142.75;100.00;76481.72;4996952;28;20064;-61
2023/07/17 01:20:47;;;;;;;5.85;1.60;;;;;;;-142.75;100.00;76493.53;4986609;28;20122;-61
2023/07/17 01:23:12;;;;;;;3.17;1.35;;;;;;;-142.75;100.00;76475.81;4987118;28;20030;-61
2023/07/17 01:25:37;;;;;;;6.38;1.48;;;;;;;-142.75;100.00;76464.00;4986816;28;20022;-61
2023/07/17 01:28:03;;;;;;;2.88;1.23;;;;;;;-142.75;100.00;76460.06;4986832;28;20637;-61
2023/07/17 01:30:28;;;;;;;8.40;2.05;;;;;;;-142.75;100.00;76477.78;4986380;28;20029;-62
2023/07/17 01:32:54;;;;;;;10.10;2.45;;;;;;;-142.75;100.00;76477.78;4986154;28;20030;-61
2023/07/17 01:35:19;;;;;;;7.13;1.50;;;;;;;-142.75;100.00;76475.81;4986445;28;20547;-62
2023/07/17 01:37:44;;;;;;;4.30;1.30;;;;;;;-142.75;100.00;76477.78;4989250;28;20446;-61
2023/07/17 01:40:12;;;;;;;8.23;1.77;;;;;;;-142.75;100.00;76477.78;5005755;28;20049;-61
2023/07/17 01:42:37;;;;;;;8.93;1.63;;;;;;;-142.75;100.00;76491.56;5005934;28;20025;-62
2023/07/17 01:45:03;;;;;;;3.38;1.20;;;;;;;-142.75;100.00;76485.66;5006047;28;20417;-61
2023/07/17 01:47:29;;;;;;;8.73;1.48;;;;;;;-142.75;100.00;76495.50;5005806;28;20025;-61
2023/07/17 01:49:55;;;;;;;3.92;1.25;;;;;;;-142.75;100.00;76507.31;5005231;28;20026;-61
2023/07/17 01:52:20;;;;;;;5.05;1.20;;;;;;;-142.75;100.00;76491.56;5005955;28;20470;-61
2023/07/17 01:54:45;;;;;;;5.22;1.58;;;;;;;-142.75;100.00;76495.50;5006055;28;20030;-61
2023/07/17 01:57:10;;;;;;;11.02;1.88;;;;;;;-142.75;100.00;76505.34;5005938;28;20030;-61
2023/07/17 01:59:36;;;;;;;6.75;1.55;;;;;;;-142.75;100.00;76505.34;5005179;28;20399;-60
2023/07/17 02:02:02;;;;;;;8.50;2.00;;;;;;;-142.75;100.00;76495.50;5005341;28;20061;-61
2023/07/17 02:04:28;;;;;;;10.35;2.25;;;;;;;-142.75;100.00;76495.50;5005629;28;20029;-61
2023/07/17 02:06:53;;;;;;;10.20;2.08;;;;;;;-142.75;100.00;76507.31;5006007;28;20033;-61
2023/07/17 02:09:18;;;;;;;11.73;1.95;;;;;;;-142.75;100.00;76507.31;5005110;28;20109;-61
2023/07/17 02:11:44;;;;;;;8.32;1.73;;;;;;;-142.75;100.00;76505.34;5004395;28;20017;-61
2023/07/17 02:14:09;;;;;;;7.32;2.10;;;;;;;-142.75;100.00;76519.13;5005641;28;20061;-61
2023/07/17 02:16:34;;;;;;;6.68;1.77;;;;;;;-142.75;100.00;76519.13;5005311;28;20684;-60
2023/07/17 02:19:00;;;;;;;8.13;2.30;;;;;;;-142.75;100.00;76528.97;5004971;28;20026;-61
2023/07/17 02:21:25;;;;;;;5.68;1.67;;;;;;;-142.75;100.00;76523.06;5005526;28;20393;-60
2023/07/17 02:23:51;;;;;;;9.50;2.38;;;;;;;-142.75;100.00;76515.19;5005466;28;20018;-61
2023/07/17 02:26:16;;;;;;;5.38;1.85;;;;;;;-142.75;100.00;76507.31;5003995;28;20033;-61
2023/07/17 02:28:42;;;;;;;5.20;1.70;;;;;;;-142.75;100.00;76513.22;4985916;28;20026;-62
2023/07/17 02:31:07;;;;;;;9.30;2.00;;;;;;;-142.75;100.00;76513.22;4985528;28;20520;-61
2023/07/17 02:33:32;;;;;;;6.95;2.00;;;;;;;-142.75;100.00;76534.84;4985684;28;20053;-61
2023/07/17 02:35:58;;;;;;;4.57;1.85;;;;;;;-142.75;100.00;76527.00;4985761;28;20673;-61
2023/07/17 02:38:23;;;;;;;7.75;2.10;;;;;;;-142.75;100.00;76523.06;5004020;28;20493;-60
2023/07/17 02:40:48;;;;;;;10.32;2.30;;;;;;;-142.75;100.00;76527.00;5004996;28;20397;-61
2023/07/17 02:43:13;;;;;;;6.93;1.80;;;;;;;-142.75;100.00;76519.13;5005277;28;20402;-61
2023/07/17 02:45:39;;;;;;;9.50;2.65;;;;;;;-142.75;100.00;76509.28;5006573;28;20501;-61
2023/07/17 02:48:05;;;;;;;8.98;2.35;;;;;;;-142.75;100.00;76517.16;5009070;28;20026;-61
2023/07/17 02:50:30;;;;;;;14.45;2.50;;;;;;;-142.75;100.00;76527.00;5008686;28;20521;-61
2023/07/17 02:52:55;;;;;;;11.90;2.60;;;;;;;-142.75;100.00;76528.97;5009135;28;20536;-60
2023/07/17 02:55:24;;;;;;;5.57;2.47;;;;;;;-142.75;100.00;76521.09;5009059;28;20018;-61
2023/07/17 02:57:49;;;;;;;5.65;1.98;;;;;;;-142.75;100.00;76540.75;5008936;28;20026;-60
2023/07/17 03:00:15;;;;;;;7.50;2.47;;;;;;;-142.75;100.00;76534.84;5008656;28;20040;-61
2023/07/17 03:02:42;;;;;;;10.00;2.17;;;;;;;-142.75;100.00;76530.91;5008668;28;20034;-61
2023/07/17 03:05:08;;;;;;;7.72;2.13;;;;;;;-142.75;100.00;76534.84;5008944;28;20053;-61
2023/07/17 03:07:39;;;;;;;12.70;3.08;;;;;;;-142.75;100.00;76554.53;5009148;28;20061;-61
2023/07/17 03:10:05;;;;;;;9.80;2.75;;;;;;;-142.75;100.00;76558.47;5008430;28;20029;-61
2023/07/17 03:12:30;;;;;;;9.88;2.75;;;;;;;-142.75;100.00;76546.66;5008677;28;20092;-61
2023/07/17 03:14:57;;;;;;;8.52;2.88;;;;;;;-142.75;100.00;76554.53;5008480;28;20070;-59
2023/07/17 03:17:22;;;;;;;12.25;2.70;;;;;;;-142.75;100.00;76562.41;5008552;28;20076;-58
2023/07/17 03:19:47;;;;;;;11.00;2.92;;;;;;;-142.75;100.00;76558.47;5008114;28;20763;-57
2023/07/17 03:22:13;;;;;;;8.05;2.45;;;;;;;-142.75;100.00;76554.53;5008494;28;20408;-61
2023/07/17 03:24:38;;;;;;;11.60;3.13;;;;;;;-142.75;100.00;76556.50;5008678;28;20030;-60
2023/07/17 03:27:04;;;;;;;12.10;2.60;;;;;;;-142.75;100.00;76546.66;5008714;28;20096;-61
2023/07/17 03:29:29;;;;;;;7.13;2.72;;;;;;;-142.75;100.00;76554.53;5008166;28;20056;-61
2023/07/17 03:31:54;;;;;;;8.85;3.00;;;;;;;-142.75;100.00;76542.72;5008479;28;20396;-62
2023/07/17 03:34:20;;;;;;;9.80;2.80;;;;;;;-142.75;100.00;76540.75;5008448;28;20021;-61
2023/07/17 03:36:45;;;;;;;10.45;2.53;;;;;;;-142.75;100.00;76562.41;5008748;28;20117;-61
2023/07/17 03:39:11;;;;;;;12.57;2.88;;;;;;;-142.75;100.00;76542.72;5007842;28;20484;-61
2023/07/17 03:41:37;;;;;;;16.00;3.63;;;;;;;-142.75;100.00;76546.66;5008265;28;20244;-60
2023/07/17 03:44:03;;;;;;;8.93;3.00;;;;;;;-142.75;100.00;76530.91;5008168;28;20022;-61
2023/07/17 03:46:30;;;;;;;16.00;3.25;;;;;;;-142.75;100.00;76530.91;5008177;28;20064;-60
2023/07/17 03:48:55;;;;;;;10.98;3.17;;;;;;;-142.75;100.00;76519.13;5007818;28;20112;-60
2023/07/17 03:51:22;;;;;;;10.23;3.50;;;;;;;-142.75;100.00;76507.31;4989500;28;20110;-61
2023/07/17 03:53:47;;;;;;;12.07;3.35;;;;;;;-142.75;100.00;76523.06;4988555;28;20393;-62
2023/07/17 03:56:13;;;;;;;9.25;3.42;;;;;;;-142.75;100.00;76523.06;4988454;28;20101;-61
2023/07/17 03:58:38;;;;;;;14.07;3.20;;;;;;;-142.75;100.00;76525.03;4988136;28;20109;-60
2023/07/17 04:01:03;;;;;;;13.70;3.20;;;;;;;-142.75;100.00;76530.91;4988392;28;20516;-60
2023/07/17 04:03:29;;;;;;;11.25;3.95;;;;;;;-142.75;100.00;76542.72;4988194;28;20034;-61
2023/07/17 04:05:54;;;;;;;8.27;2.58;;;;;;;-142.75;100.00;76540.75;4988367;28;20722;-61
2023/07/17 04:08:20;;;;;;;8.82;2.70;;;;;;;-142.75;100.00;76538.78;4988709;28;20019;-61
2023/07/17 04:10:45;;;;;;;8.43;2.95;;;;;;;-142.75;100.00;76548.63;4987972;28;20045;-61
2023/07/17 04:13:10;;;;;;;8.60;3.38;;;;;;;-142.75;100.00;76550.59;4993505;28;20029;-61
2023/07/17 04:15:36;;;;;;;12.95;3.63;;;;;;;-142.75;100.00;76530.91;5007280;28;20030;-61
2023/07/17 04:18:02;;;;;;;8.43;2.90;;;;;;;-142.75;100.00;76554.53;5007620;28;20029;-61
2023/07/17 04:20:27;;;;;;;9.93;3.55;;;;;;;-142.75;100.00;76550.59;5007038;28;20072;-62
2023/07/17 04:22:53;;;;;;;8.35;3.20;;;;;;;-142.75;100.00;76552.56;5007368;28;20037;-61
2023/07/17 04:25:18;;;;;;;7.35;2.70;;;;;;;-142.75;100.00;76556.50;5007677;28;20112;-60
2023/07/17 04:27:44;;;;;;;12.10;4.47;;;;;;;-142.75;100.00;76552.56;5007591;28;20097;-60
2023/07/17 04:30:10;;;;;;;9.65;3.25;;;;;;;-142.75;100.00;76554.53;5007027;28;20149;-60
2023/07/17 04:32:35;;;;;;;11.23;3.17;;;;;;;-142.75;100.00;76542.72;5007334;28;20034;-61
2023/07/17 04:35:00;;;;;;;13.30;3.67;;;;;;;-142.75;100.00;76540.75;5001205;28;20021;-59
2023/07/17 04:37:26;;;;;;;12.63;3.60;;;;;;;-142.75;100.00;76534.84;5007645;28;20048;-59
2023/07/17 04:39:51;;;;;;;10.63;3.22;;;;;;;-142.75;100.00;76530.91;5006960;28;20026;-60
2023/07/17 04:42:16;;;;;;;10.73;3.50;;;;;;;-142.75;100.00;76534.84;5007338;28;20018;-58
2023/07/17 04:44:44;;;;;;;11.70;3.38;;;;;;;-142.75;100.00;76538.78;5006845;28;20071;-60
2023/07/17 04:47:10;;;;;;;10.70;3.83;;;;;;;-142.75;100.00;76546.66;5007146;28;20053;-61
2023/07/17 04:49:36;;;;;;;12.65;3.97;;;;;;;-142.75;100.00;76554.53;5006506;28;20504;-58
2023/07/17 04:52:02;;;;;;;10.68;3.67;;;;;;;-142.75;100.00;76538.78;5003483;28;20018;-60
2023/07/17 04:54:27;;;;;;;16.70;4.45;;;;;;;-142.75;100.00;76544.69;4987390;28;20465;-59
2023/07/17 04:56:52;;;;;;;14.20;4.20;;;;;;;-142.75;100.00;76538.78;4987141;28;20032;-60
2023/07/17 04:59:19;;;;;;;13.57;3.63;;;;;;;-142.75;100.00;76534.84;4987455;28;20026;-59
2023/07/17 05:01:44;;;;;;;11.82;4.72;;;;;;;-142.75;100.00;76534.84;4987529;28;20019;-60
2023/07/17 05:04:09;;;;;;;17.90;4.43;;;;;;;-142.75;100.00;76530.91;4987178;28;20026;-60
2023/07/17 05:06:35;;;;;;;11.10;3.95;;;;;;;-142.75;100.00;76532.88;4987547;28;20417;-61
2023/07/17 05:09:01;;;;;;;14.98;4.43;;;;;;;-142.75;100.00;76523.06;4986253;28;20049;-60
2023/07/17 05:11:26;;;;;;;13.45;3.95;;;;;;;-142.75;100.00;76532.88;4987153;28;20026;-60
2023/07/17 05:13:51;;;;;;;11.52;4.35;;;;;;;-142.75;100.00;76542.72;4986656;28;20053;-61
2023/07/17 05:16:17;;;;;;;15.73;5.13;;;;;;;-142.75;100.00;76521.09;4987288;28;20118;-61
2023/07/17 05:18:43;;;;;;;20.70;5.63;;;;;;;-142.75;100.00;76519.13;4986932;28;20026;-61
2023/07/17 05:21:09;;;;;;;14.63;5.03;;;;;;;-142.75;100.00;76528.97;4985436;28;21506;-60
2023/07/17 05:23:34;;;;;;;15.35;5.10;;;;;;;-142.75;100.00;76532.88;4986645;28;20117;-60
2023/07/17 05:26:00;;;;;;;14.35;5.05;;;;;;;-142.75;100.00;76523.06;4987065;28;20647;-61
2023/07/17 05:28:28;;;;;;;17.15;6.13;;;;;;;-142.75;100.00;76515.19;4986612;28;20061;-61
2023/07/17 05:30:55;;;;;;;13.52;5.45;;;;;;;-142.75;100.00;76501.41;4986559;28;20022;-60
2023/07/17 05:33:21;;;;;;;17.50;5.20;;;;;;;-142.75;100.00;76515.19;4986587;28;20113;-61
2023/07/17 05:35:47;;;;;;;14.05;5.63;;;;;;;-142.75;100.00;76515.19;4986505;28;20485;-61
2023/07/17 05:38:13;;;;;;;17.13;5.30;;;;;;;-142.75;100.00;76523.06;4987436;28;20114;-61
2023/07/17 05:40:40;;;;;;;16.38;5.88;;;;;;;-142.75;100.00;76534.84;4992500;28;20460;-61
2023/07/17 05:43:05;;;;;;;13.82;5.50;;;;;;;-142.75;100.00;76542.72;5005806;28;20018;-61
2023/07/17 05:45:31;;;;;;;14.75;5.25;;;;;;;-142.75;100.00;76513.22;5000019;28;20024;-61
2023/07/17 05:47:56;;;;;;;21.15;5.18;;;;;;;-142.75;100.00;76499.44;4986546;28;20034;-61
2023/07/17 05:50:22;;;;;;;17.63;6.13;;;;;;;-142.75;100.00;76499.44;4986940;28;20053;-60
2023/07/17 05:52:47;;;;;;;15.30;5.55;;;;;;;-142.75;100.00;76475.81;4992722;28;20037;-60
2023/07/17 05:55:12;;;;;;;14.73;5.82;;;;;;;-142.75;100.00;76465.97;4987945;28;20091;-61
2023/07/17 05:57:38;;;;;;;19.85;6.90;;;;;;;-142.75;100.00;76477.78;4987205;28;20137;-61
2023/07/17 06:00:04;;;;;;;14.00;5.78;;;;;;;-142.75;100.00;76450.22;4990686;28;20110;-60
2023/07/17 06:02:29;;;;;;;16.20;5.47;;;;;;;-142.75;100.00;76428.56;4991946;28;20521;-61
2023/07/17 06:04:55;;;;;;;12.85;5.07;;;;;;;-142.75;100.00;76444.31;4986109;28;20101;-61
2023/07/17 06:07:20;;;;;;;16.05;5.40;;;;;;;-142.75;100.00;76412.81;4986583;28;20037;-61
2023/07/17 06:09:45;;;;;;;16.45;5.57;;;;;;;-142.75;100.00;76420.69;4985941;28;20466;-61
2023/07/17 06:12:11;;;;;;;19.27;5.47;;;;;;;-142.75;100.00;76428.56;4986085;28;20123;-62
2023/07/17 06:14:36;;;;;;;14.43;4.65;;;;;;;-142.75;100.00;76426.59;4987648;28;20101;-61
2023/07/17 06:17:02;;;;;;;14.45;4.72;;;;;;;-142.75;100.00;76416.75;4990912;28;20027;-61
2023/07/17 06:19:28;;;;;;;12.07;5.00;;;;;;;-142.75;100.00;76399.03;4988240;28;20091;-61
2023/07/17 06:21:53;;;;;;;11.75;5.40;;;;;;;-142.75;100.00;76377.38;4986159;28;20073;-61
2023/07/17 06:24:19;;;;;;;16.00;6.10;;;;;;;-142.75;100.00;76369.50;4985970;28;20030;-58
2023/07/17 06:26:44;;;;;;;14.25;5.00;;;;;;;-142.75;100.00;76355.72;4986530;28;20061;-61
2023/07/17 06:29:10;;;;;;;15.73;4.93;;;;;;;-142.75;100.00;76359.66;4985582;28;20499;-61
2023/07/17 06:31:36;;;;;;;18.90;4.78;;;;;;;-142.75;100.00;76338.03;4985982;28;20023;-61
2023/07/17 06:34:02;;;;;;;17.73;4.93;;;;;;;-142.75;100.00;76340.00;4981484;28;20359;-61
2023/07/17 06:36:27;;;;;;;15.95;5.65;;;;;;;-142.75;100.00;76349.81;4983900;28;20030;-61
2023/07/17 06:38:54;;;;;;;11.82;4.45;;;;;;;-142.75;100.00;76304.56;4985707;28;20054;-59
2023/07/17 06:41:19;;;;;;;12.93;5.35;;;;;;;-142.75;100.00;76298.66;4982931;28;20665;-61
2023/07/17 06:43:44;;;;;;;15.55;5.95;;;;;;;-142.75;100.00;76340.00;4986846;28;20034;-60
2023/07/17 06:46:10;;;;;;;13.35;4.78;;;;;;;-142.75;100.00;76357.69;4985450;28;20026;-61
2023/07/17 06:48:36;;;;;;;16.05;5.28;;;;;;;-142.75;100.00;76408.88;4985401;28;20022;-61
2023/07/17 06:51:04;;;;;;;15.35;5.22;;;;;;;-142.75;100.00;76418.72;4984273;28;20030;-60
2023/07/17 06:53:30;;;;;;;9.50;4.25;;;;;;;-142.75;100.00;76391.16;4984136;28;20018;-61
2023/07/17 06:55:56;;;;;;;14.43;5.40;;;;;;;-142.75;100.00;76336.06;4988326;28;20029;-61
2023/07/17 06:58:22;;;;;;;12.57;4.97;;;;;;;-142.75;100.00;76294.72;4988563;28;20034;-60
2023/07/17 07:00:53;;;;;;;11.90;4.10;;;;;;;-142.75;100.00;76288.81;4993998;28;20022;-60
2023/07/17 07:03:18;;;;;;;14.15;4.90;;;;;;;-142.75;100.00;76300.63;4998902;28;20026;-61
2023/07/17 07:05:52;;;;;;;14.18;4.65;;;;;;;-142.75;100.00;76312.44;5005888;28;20523;-61
2023/07/17 07:08:18;;;;;;;12.07;3.88;;;;;;;-142.75;100.00;76302.59;5000649;28;20030;-60
2023/07/17 07:10:43;;;;;;;10.18;3.80;;;;;;;-142.75;100.00;76263.22;4992520;28;20031;-61
2023/07/17 07:13:08;;;;;;;13.45;3.90;;;;;;;-142.75;100.00;76255.34;4985555;28;20139;-57
2023/07/17 07:15:34;;;;;;;7.25;3.45;;;;;;;-142.75;100.00;76253.38;4984071;28;20453;-61
2023/07/17 07:17:59;;;;;;;15.13;4.07;;;;;;;-142.75;100.00;76253.38;4986245;28;20023;-60
2023/07/17 07:20:25;;;;;;;10.80;4.00;;;;;;;-142.75;100.00;76263.22;4985518;28;20656;-61
2023/07/17 07:22:50;;;;;;;13.90;3.65;;;;;;;-142.75;100.00;76257.31;4985860;28;20026;-61
2023/07/17 07:25:15;;;;;;;12.13;3.95;;;;;;;-142.75;100.00;76239.59;4987073;28;20473;-59
2023/07/17 07:27:41;;;;;;;11.48;3.95;;;;;;;-142.75;100.00;76217.94;4985820;28;20477;-59
2023/07/17 07:30:06;;;;;;;9.23;3.53;;;;;;;-142.75;100.00;76229.75;4984083;28;20053;-61
2023/07/17 07:32:32;;;;;;;10.25;4.15;;;;;;;-142.75;100.00;76253.38;4995170;28;20056;-60
2023/07/17 07:34:57;;;;;;;8.43;3.08;;;;;;;-142.75;100.00;76231.72;4996923;28;20378;-58
2023/07/17 07:37:22;;;;;;;8.93;2.83;;;;;;;-142.75;100.00;76190.41;4991300;28;20389;-61
2023/07/17 07:39:48;;;;;;;6.80;2.30;;;;;;;-142.75;100.00;76208.09;4989427;28;20022;-57
2023/07/17 07:42:13;;;;;;;7.45;2.45;;;;;;;-142.75;100.00;76200.25;4989664;28;20096;-59
2023/07/17 07:44:38;;;;;;;6.05;2.40;;;;;;;-142.75;100.00;76194.34;4989077;28;20030;-60
2023/07/17 07:47:05;;;;;;;9.07;2.38;;;;;;;-142.75;100.00;76170.72;4989720;28;20576;-59
2023/07/17 07:49:30;;;;;;;7.18;2.10;;;;;;;-142.75;100.00;76160.88;4988933;28;20394;-60
2023/07/17 07:51:55;;;;;;;8.23;2.28;;;;;;;-142.75;100.00;76133.31;4988714;28;20026;-60
2023/07/17 07:54:21;;;;;;;8.02;2.17;;;;;;;-142.75;100.00;76151.03;4989898;28;20034;-60
2023/07/17 07:56:46;;;;;;;5.80;1.92;;;;;;;-142.75;100.00;76184.50;4995023;28;20022;-57
2023/07/17 07:59:11;;;;;;;3.97;1.52;;;;;;;-142.75;100.00;76210.06;4993051;28;20026;-58
2023/07/17 08:01:37;;;;;;;9.98;1.88;;;;;;;-142.75;100.00;76217.94;4992411;28;20073;-58
2023/07/17 08:04:02;;;;;;;5.45;1.80;;;;;;;-142.75;100.00;76259.28;4989129;28;20096;-59
2023/07/17 08:06:27;;;;;;;3.72;1.42;;;;;;;-142.75;100.00;76257.31;4992545;28;20445;-60
2023/07/17 08:08:53;;;;;;;5.22;1.52;;;;;;;-142.75;100.00;76214.00;4990819;28;20028;-60
2023/07/17 08:11:21;;;;;;;5.15;1.67;;;;;;;-142.75;100.00;76180.56;4990932;28;20034;-60
2023/07/17 08:13:46;;;;;;;7.20;1.77;;;;;;;-142.75;100.00;76182.53;4989046;28;20119;-59
2023/07/17 08:16:11;;;;;;;5.07;1.70;;;;;;;-142.75;100.00;76196.31;4988835;28;20122;-57
2023/07/17 08:18:37;;;;;;;4.20;1.27;;;;;;;-142.75;100.00;76145.13;4988589;28;20116;-60
2023/07/17 08:21:02;;;;;;;4.43;1.42;;;;;;;-142.75;100.00;76088.03;4988095;28;20145;-61
2023/07/17 08:23:28;;;;;;;3.30;1.30;;;;;;;-142.75;100.00;76072.31;4988626;28;20034;-61
2023/07/17 08:25:53;;;;;;;10.52;1.70;;;;;;;-142.75;97.87;76133.31;4988364;28;20094;-59
2023/07/17 08:28:18;;;;;;;5.57;1.35;;;;;;;-142.75;100.00;76156.94;4988369;28;20542;-61
2023/07/17 08:30:44;;;;;;;5.55;2.15;;;;;;;-142.75;100.00;76176.63;4988452;28;20049;-60
2023/07/17 08:33:11;;;;;;;6.50;2.25;;;;;;;-142.75;100.00;76214.00;4988485;28;20033;-58
2023/07/17 08:35:36;;;;;;;8.32;2.80;;;;;;;-142.75;100.00;76269.13;4988266;28;20572;-58
2023/07/17 08:38:02;;;;;;;6.60;2.30;;;;;;;-142.75;100.00;76298.66;4985065;28;20022;-59
2023/07/17 08:40:27;;;;;;;7.57;2.85;;;;;;;-142.75;100.00;76310.47;4985495;28;20019;-57
2023/07/17 08:42:55;;;;;;;9.63;2.50;;;;;;;-142.75;100.00;76363.59;4987213;28;20389;-60
2023/07/17 08:45:22;;;;;;;10.80;3.00;;;;;;;-142.75;100.00;76357.69;4988298;28;20041;-61
2023/07/17 08:47:51;;;;;;;10.85;2.60;;;;;;;-142.75;100.00;76365.56;4988285;28;20018;-61
2023/07/17 08:50:17;;;;;;;9.15;2.63;;;;;;;-142.75;100.00;76359.66;4987952;28;20386;-60
2023/07/17 08:52:44;;;;;;;10.55;3.05;;;;;;;-142.75;100.00;76357.69;4987948;28;20022;-59
2023/07/17 08:55:09;;;;;;;5.97;1.85;;;;;;;-142.75;100.00;76314.41;4988066;28;20116;-61
2023/07/17 08:57:35;;;;;;;7.00;2.50;;;;;;;-142.75;100.00;76249.44;4988033;28;20142;-60
2023/07/17 09:00:01;;;;;;;7.50;2.20;;;;;;;-142.75;100.00;76237.63;4987475;28;20485;-59
2023/07/17 09:02:27;;;;;;;8.23;2.38;;;;;;;-142.75;100.00;76255.34;4987697;28;20486;-60
2023/07/17 09:04:52;;;;;;;7.50;2.60;;;;;;;-142.75;100.00;76271.09;4987670;28;20101;-60
2023/07/17 09:07:18;;;;;;;4.90;2.38;;;;;;;-142.75;100.00;76288.81;4987891;28;20101;-60
2023/07/17 09:09:43;;;;;;;9.10;2.63;;;;;;;-142.75;100.00;76306.53;4986085;28;20037;-59
2023/07/17 09:12:10;;;;;;;11.70;3.53;;;;;;;-142.75;100.00;76338.03;4987271;28;20038;-58
2023/07/17 09:14:36;;;;;;;11.02;3.08;;;;;;;-142.75;100.00;76310.47;4987821;28;20029;-58
2023/07/17 09:17:07;;;;;;;9.65;2.92;;;;;;;-142.75;100.00;76324.25;4985939;28;20085;-58
2023/07/17 09:19:34;;;;;;;8.55;2.67;;;;;;;-142.75;100.00;76316.38;4982955;28;20401;-58
2023/07/17 09:22:02;;;;;;;8.07;2.47;;;;;;;-142.75;100.00;76302.59;4986534;28;20393;-59
2023/07/17 09:24:28;;;;;;;7.88;3.03;;;;;;;-142.75;100.00;76251.41;4988606;28;20026;-55
2023/07/17 09:26:57;;;;;;;9.30;2.83;;;;;;;-142.75;100.00;76162.84;4995419;28;20375;-58
2023/07/17 09:29:26;;;;;;;8.18;3.20;;;;;;;-142.75;100.00;76166.78;4990814;28;20060;-60
2023/07/17 09:31:51;;;;;;;15.43;3.28;;;;;;;-142.75;100.00;76162.84;4987316;28;20023;-59
2023/07/17 09:34:18;;;;;;;9.00;2.95;;;;;;;-142.75;100.00;76086.06;4987494;28;20041;-57
2023/07/17 09:36:43;;;;;;;6.78;3.13;;;;;;;-142.75;100.00;76076.22;4987311;28;20026;-58
2023/07/17 09:39:11;;;;;;;7.10;2.40;;;;;;;-142.75;100.00;76066.41;4987482;28;20041;-58
2023/07/17 09:41:36;;;;;;;6.78;3.03;;;;;;;-142.75;100.00;76082.13;5006447;28;20022;-60
2023/07/17 09:44:07;;;;;;;8.75;3.13;;;;;;;-142.75;100.00;76060.50;5006448;28;20028;-58
2023/07/17 09:46:37;;;;;;;8.32;2.67;;;;;;;-142.75;100.00;76090.00;5006517;28;20030;-60
2023/07/17 09:49:04;;;;;;;7.93;2.85;;;;;;;-142.75;100.00;76111.66;5006576;28;20108;-61
2023/07/17 09:51:30;;;;;;;11.13;2.53;;;;;;;-142.75;100.00;76090.00;5005244;28;20029;-58
2023/07/17 09:53:57;;;;;;;8.68;2.65;;;;;;;-142.75;100.00;76029.00;5006085;28;20571;-61
2023/07/17 09:56:27;;;;;;;9.35;2.75;;;;;;;-142.75;100.00;76015.22;5006028;28;20156;-60
2023/07/17 09:58:55;;;;;;;10.55;2.97;;;;;;;-142.75;100.00;76023.09;5006304;28;20021;-61
2023/07/17 10:01:25;;;;;;;7.93;2.40;;;;;;;-142.75;100.00;75983.72;5005906;28;20036;-60
2023/07/17 10:03:51;;;;;;;9.35;3.42;;;;;;;-142.75;100.00;75995.53;5006393;28;20705;-59
2023/07/17 10:06:18;;;;;;;8.88;2.95;;;;;;;-142.75;100.00;75948.31;5006249;28;20026;-60
2023/07/17 10:08:50;;;;;;;8.82;2.85;;;;;;;-142.75;100.00;75975.84;5006839;28;20485;-58
2023/07/17 10:11:16;;;;;;;8.27;3.28;;;;;;;-142.75;100.00;76003.41;5006400;28;20429;-59
2023/07/17 10:13:47;;;;;;;9.60;3.30;;;;;;;-142.75;100.00;75977.81;4989038;28;20026;-59
2023/07/17 10:16:17;;;;;;;7.97;2.70;;;;;;;-142.75;100.00;75985.69;4986581;28;20088;-60
2023/07/17 10:18:48;;;;;;;9.80;3.78;;;;;;;-142.75;100.00;75964.03;4986659;28;20637;-60
2023/07/17 10:21:16;;;;;;;9.88;3.00;;;;;;;-142.75;100.00;75938.47;4986439;28;20426;-59
2023/07/17 10:23:42;;;;;;;10.00;2.85;;;;;;;-142.75;100.00;75977.81;4986517;28;20030;-60
2023/07/17 10:26:10;;;;;;;8.02;3.67;;;;;;;-142.75;100.00;76017.19;4986792;28;20502;-60
2023/07/17 10:28:37;;;;;;;10.60;3.33;;;;;;;-142.75;95.06;76076.22;4986975;28;20034;-59
2023/07/17 10:31:10;;;;;;;10.48;3.40;;;;;;;-142.75;100.00;76109.69;4986512;28;20104;-61
2023/07/17 10:33:37;;;;;;;8.73;2.88;;;;;;;-142.75;100.00;76086.06;4986759;28;20045;-60
2023/07/17 10:36:03;;;;;;;8.32;3.25;;;;;;;-142.75;100.00;76125.44;4986460;28;20019;-61
2023/07/17 10:38:38;;;;;;;7.30;3.13;;;;;;;-142.75;100.00;76154.97;5000923;28;20710;-61
2023/07/17 10:41:05;;;;;;;6.05;2.67;;;;;;;-142.75;100.00;76215.97;4985862;28;20041;-61
2023/07/17 10:43:32;;;;;;;10.15;2.67;;;;;;;-142.75;100.00;76251.41;4988491;28;20034;-58
2023/07/17 10:45:58;;;;;;;6.82;2.85;;;;;;;-142.75;100.00;76249.44;4993277;28;20049;-59
2023/07/17 10:48:33;;;;;;;7.47;3.08;;;;;;;-142.75;100.00;76214.00;4992477;28;20054;-59
2023/07/17 10:50:58;;;;;;;8.35;2.38;;;;;;;-142.75;100.00;76172.69;4989365;28;20029;-61
2023/07/17 10:53:24;;;;;;;6.38;2.60;;;;;;;-142.75;100.00;76139.22;4989997;28;20029;-61
2023/07/17 10:55:50;;;;;;;10.90;2.22;;;;;;;-142.75;100.00;76168.75;4986562;28;20033;-58
2023/07/17 10:58:18;;;;;;;5.00;2.25;;;;;;;-142.75;100.00;76115.59;4985031;28;20158;-61
2023/07/17 11:00:44;;;;;;;5.93;2.00;;;;;;;-142.75;100.00;76062.47;4985507;28;20391;-59